createdAt,value
2019-02-28T00:01:34.889Z,68.73
2019-02-28T00:04:05.731Z,61.70
2019-02-28T00:06:38.106Z,58.13
2019-02-28T00:09:10.346Z,52.70
2019-02-28T00:11:40.214Z,51.73
2019-02-28T00:14:09.495Z,45.27
2019-02-28T00:16:38.713Z,47.57
2019-02-28T00:19:09.654Z,51.67
2019-02-28T00:21:40.560Z,44.90
2019-02-28T00:24:11.036Z,37.60
2019-02-28T00:26:46.318Z,33.00
2019-02-28T00:29:15.784Z,32.20
2019-02-28T00:31:50.181Z,29.87
2019-02-28T00:34:20.801Z,30.70
2019-02-28T00:36:53.406Z,31.17
2019-02-28T00:39:23.456Z,29.80
2019-02-28T00:41:53.434Z,29.67
2019-02-28T00:44:23.098Z,29.27
2019-02-28T00:46:55.246Z,27.53
2019-02-28T00:49:27.602Z,28.77
2019-02-28T00:51:57.411Z,27.20
2019-02-28T00:54:27.843Z,27.93
2019-02-28T00:56:57.789Z,27.83
2019-02-28T00:59:31.718Z,26.43
2019-02-28T01:02:00.554Z,28.33
2019-02-28T01:04:30.899Z,27.07
2019-02-28T01:07:01.908Z,28.40
2019-02-28T01:09:31.791Z,27.10
2019-02-28T01:12:03.351Z,27.60
2019-02-28T01:14:35.810Z,27.40
2019-02-28T01:17:06.360Z,25.97
2019-02-28T01:19:36.529Z,27.03
2019-02-28T01:22:07.642Z,27.77
2019-02-28T01:24:37.387Z,28.17
2019-02-28T01:27:10.281Z,25.63
2019-02-28T01:29:41.098Z,26.67
2019-02-28T01:32:15.682Z,27.03
2019-02-28T01:34:44.963Z,26.90
2019-02-28T01:37:14.873Z,26.80
2019-02-28T01:39:45.401Z,26.13
2019-02-28T01:42:16.297Z,26.43
2019-02-28T01:44:46.561Z,24.93
2019-02-28T01:47:20.005Z,25.87
2019-02-28T01:49:49.375Z,24.60
2019-02-28T01:52:20.320Z,26.03
2019-02-28T01:54:51.191Z,27.30
2019-02-28T01:57:22.034Z,25.63
2019-02-28T01:59:54.054Z,25.87
2019-02-28T02:02:24.982Z,25.67
2019-02-28T02:04:54.245Z,24.73
2019-02-28T02:07:25.340Z,25.47
2019-02-28T02:09:57.590Z,24.97
2019-02-28T02:12:31.197Z,26.07
2019-02-28T02:15:00.655Z,26.37
2019-02-28T02:17:32.273Z,25.50
2019-02-28T02:20:03.811Z,26.97
2019-02-28T02:22:33.158Z,26.27
2019-02-28T02:25:05.506Z,25.90
2019-02-28T02:27:36.551Z,24.27
2019-02-28T02:30:15.066Z,24.53
2019-02-28T02:32:42.496Z,22.77
2019-02-28T02:35:13.785Z,25.00
2019-02-28T02:37:44.619Z,23.50
2019-02-28T02:40:18.020Z,22.77
2019-02-28T02:42:49.715Z,23.63
2019-02-28T02:45:20.408Z,22.07
2019-02-28T02:47:51.348Z,21.93
2019-02-28T02:50:23.983Z,23.00
2019-02-28T02:52:53.871Z,21.10
2019-02-28T02:55:27.773Z,20.87
2019-02-28T02:57:57.354Z,20.43
2019-02-28T03:00:27.123Z,21.30
2019-02-28T03:02:56.383Z,22.43
2019-02-28T03:05:26.226Z,20.17
2019-02-28T03:07:59.450Z,21.23
2019-02-28T03:10:28.171Z,22.57
2019-02-28T03:13:04.923Z,20.27
2019-02-28T03:15:31.807Z,20.57
2019-02-28T03:18:02.643Z,23.03
2019-02-28T03:20:33.686Z,21.00
2019-02-28T03:23:03.297Z,21.57
2019-02-28T03:25:33.443Z,21.33
2019-02-28T03:28:04.681Z,21.57
2019-02-28T03:30:35.895Z,21.00
2019-02-28T03:33:05.877Z,21.13
2019-02-28T03:35:42.962Z,20.83
2019-02-28T03:38:11.677Z,18.67
2019-02-28T03:40:40.238Z,18.53
2019-02-28T03:43:09.718Z,19.43
2019-02-28T03:45:40.981Z,19.10
2019-02-28T03:48:10.878Z,18.70
2019-02-28T03:50:41.849Z,19.10
2019-02-28T03:53:11.724Z,18.42
2019-02-28T03:55:42.674Z,18.77
2019-02-28T03:58:13.139Z,19.20
2019-02-28T04:00:42.504Z,18.97
2019-02-28T04:03:12.635Z,18.25
2019-02-28T04:05:42.280Z,20.43
2019-02-28T04:08:12.221Z,18.73
2019-02-28T04:10:42.012Z,18.60
2019-02-28T04:13:19.210Z,17.97
2019-02-28T04:16:07.418Z,17.63
2019-02-28T04:18:48.579Z,18.33
2019-02-28T04:21:18.286Z,17.77
2019-02-28T04:23:52.697Z,18.53
2019-02-28T04:26:22.727Z,15.90
2019-02-28T04:31:44.692Z,15.70
2019-02-28T04:34:17.021Z,16.42
2019-02-28T04:36:50.095Z,16.23
2019-02-28T04:39:22.714Z,16.03
2019-02-28T04:41:51.019Z,14.80
2019-02-28T04:44:20.908Z,16.27
2019-02-28T04:46:50.711Z,16.37
2019-02-28T04:49:22.671Z,16.33
2019-02-28T04:51:53.913Z,14.90
2019-02-28T04:54:27.923Z,14.87
2019-02-28T04:56:57.595Z,14.57
2019-02-28T04:59:31.607Z,14.43
2019-02-28T05:02:02.787Z,14.97
2019-02-28T05:04:33.225Z,15.50
2019-02-28T05:07:06.426Z,15.53
2019-02-28T05:09:38.762Z,16.13
2019-02-28T05:12:09.487Z,14.90
2019-02-28T05:14:42.605Z,14.70
2019-02-28T05:17:13.570Z,14.30
2019-02-28T05:19:46.439Z,15.20
2019-02-28T05:22:20.654Z,15.83
2019-02-28T05:24:50.538Z,14.67
2019-02-28T05:28:14.767Z,15.60
2019-02-28T05:30:44.098Z,14.67
2019-02-28T05:33:15.059Z,14.78
2019-02-28T05:35:45.932Z,14.33
2019-02-28T05:38:20.635Z,14.30
2019-02-28T05:40:48.194Z,15.13
2019-02-28T05:43:19.730Z,13.50
2019-02-28T05:45:51.188Z,14.80
2019-02-28T05:48:21.096Z,15.30
2019-02-28T05:50:53.315Z,14.60
2019-02-28T05:53:24.666Z,14.27
2019-02-28T05:55:58.827Z,14.87
2019-02-28T05:58:27.633Z,14.93
2019-02-28T06:00:57.507Z,15.37
2019-02-28T06:03:31.577Z,15.57
2019-02-28T06:06:02.729Z,14.43
2019-02-28T06:08:39.199Z,13.13
2019-02-28T06:11:08.389Z,14.20
2019-02-28T06:13:41.355Z,14.73
2019-02-28T06:16:13.860Z,13.93
2019-02-28T06:18:43.707Z,14.23
2019-02-28T06:21:13.635Z,13.23
2019-02-28T06:23:44.663Z,12.40
2019-02-28T06:26:15.567Z,12.77
2019-02-28T06:28:46.567Z,12.60
2019-02-28T06:31:17.590Z,12.43
2019-02-28T06:33:47.444Z,11.97
2019-02-28T06:36:18.337Z,13.20
2019-02-28T06:38:48.333Z,13.13
2019-02-28T06:41:19.261Z,12.50
2019-02-28T06:43:52.869Z,13.55
2019-02-28T06:46:22.687Z,12.33
2019-02-28T06:48:52.520Z,12.97
2019-02-28T06:51:23.440Z,12.47
2019-02-28T06:53:56.522Z,11.60
2019-02-28T06:56:27.486Z,12.20
2019-02-28T06:58:57.358Z,11.53
2019-02-28T07:01:29.478Z,11.47
2019-02-28T07:04:00.975Z,10.80
2019-02-28T07:06:35.630Z,11.87
2019-02-28T07:09:03.512Z,11.57
2019-02-28T07:11:37.823Z,11.30
2019-02-28T07:14:12.919Z,12.17
2019-02-28T07:16:40.359Z,11.20
2019-02-28T07:19:11.154Z,10.43
2019-02-28T07:21:43.921Z,11.27
2019-02-28T07:24:14.611Z,11.70
2019-02-28T07:26:48.265Z,10.87
2019-02-28T07:29:18.451Z,11.28
2019-02-28T07:31:48.180Z,10.07
2019-02-28T07:34:21.914Z,10.80
2019-02-28T07:36:51.693Z,11.03
2019-02-28T07:39:25.584Z,10.88
2019-02-28T07:41:55.435Z,11.00
2019-02-28T07:44:25.302Z,10.70
2019-02-28T07:46:55.145Z,10.30
2019-02-28T07:49:26.010Z,10.87
2019-02-28T07:51:56.964Z,10.70
2019-02-28T07:54:28.508Z,10.27
2019-02-28T07:56:59.589Z,10.80
2019-02-28T07:59:40.971Z,10.93
2019-02-28T08:02:08.601Z,10.63
2019-02-28T08:04:40.807Z,10.53
2019-02-28T08:07:11.435Z,11.03
2019-02-28T08:09:45.302Z,11.23
2019-02-28T08:12:16.252Z,12.28
2019-02-28T08:14:47.029Z,10.73
2019-02-28T08:17:17.751Z,10.13
2019-02-28T08:19:47.731Z,9.67
2019-02-28T08:22:23.219Z,10.18
2019-02-28T08:24:49.832Z,10.93
2019-02-28T08:27:19.689Z,10.50
2019-02-28T08:29:50.548Z,10.47
2019-02-28T08:32:20.469Z,10.70
2019-02-28T08:34:51.489Z,11.13
2019-02-28T08:37:22.696Z,10.47
2019-02-28T08:39:53.735Z,10.83
2019-02-28T08:42:24.798Z,11.30
2019-02-28T08:44:58.975Z,11.17
2019-02-28T08:47:29.196Z,10.90
2019-02-28T08:49:58.948Z,11.73
2019-02-28T08:52:29.882Z,12.43
2019-02-28T08:54:59.680Z,11.77
2019-02-28T08:57:30.732Z,13.07
2019-02-28T09:00:01.625Z,14.00
2019-02-28T09:02:34.119Z,12.13
2019-02-28T09:05:06.662Z,12.40
2019-02-28T09:07:36.838Z,13.30
2019-02-28T09:10:18.456Z,13.33
2019-02-28T09:12:49.618Z,14.10
2019-02-28T09:15:21.456Z,14.40
2019-02-28T09:17:51.420Z,13.80
2019-02-28T09:20:24.467Z,15.70
2019-02-28T09:23:01.797Z,16.27
2019-02-28T09:25:28.826Z,16.00
2019-02-28T09:27:58.652Z,15.97
2019-02-28T09:30:45.939Z,16.50
2019-02-28T09:33:19.241Z,15.80
2019-02-28T09:35:49.745Z,18.50
2019-02-28T09:38:21.943Z,17.23
2019-02-28T09:40:52.787Z,17.90
2019-02-28T09:43:25.867Z,17.90
2019-02-28T09:45:59.033Z,16.83
2019-02-28T09:48:30.680Z,17.93
2019-02-28T09:51:00.452Z,17.37
2019-02-28T09:53:33.438Z,18.60
2019-02-28T09:56:09.335Z,19.73
2019-02-28T09:58:40.311Z,17.80
2019-02-28T10:01:11.498Z,17.33
2019-02-28T10:03:42.566Z,20.40
2019-02-28T10:06:16.186Z,20.73
2019-02-28T10:08:45.051Z,20.10
2019-02-28T10:11:21.695Z,20.27
2019-02-28T10:13:53.171Z,22.23
2019-02-28T10:16:23.999Z,20.43
2019-02-28T10:18:53.748Z,21.57
2019-02-28T10:21:28.030Z,20.20
2019-02-28T10:23:57.940Z,20.30
2019-02-28T10:26:29.315Z,19.87
2019-02-28T10:29:04.428Z,19.93
2019-02-28T10:31:36.411Z,19.90
2019-02-28T10:34:07.566Z,20.50
2019-02-28T10:36:38.770Z,18.73
2019-02-28T10:39:09.723Z,20.47
2019-02-28T10:41:39.671Z,19.03
2019-02-28T10:44:09.611Z,18.03
2019-02-28T10:46:42.429Z,22.70
2019-02-28T10:49:12.194Z,19.20
2019-02-28T10:51:44.611Z,19.97
2019-02-28T10:54:15.395Z,18.40
2019-02-28T10:56:46.463Z,17.60
2019-02-28T10:59:16.556Z,16.67
2019-02-28T11:01:48.054Z,15.97
2019-02-28T11:04:21.006Z,16.25
2019-02-28T11:06:52.126Z,15.80
2019-02-28T11:09:25.377Z,14.53
2019-02-28T11:11:54.651Z,14.83
2019-02-28T11:14:24.701Z,22.87
2019-02-28T11:16:59.078Z,17.33
2019-02-28T11:19:26.644Z,16.40
2019-02-28T11:21:57.519Z,16.77
2019-02-28T11:24:27.408Z,21.53
2019-02-28T11:26:57.379Z,20.83
2019-02-28T11:29:27.399Z,24.50
2019-02-28T11:31:59.022Z,14.37
2019-02-28T11:34:30.009Z,15.60
2019-02-28T11:37:01.027Z,14.37
2019-02-28T11:39:33.662Z,13.97
2019-02-28T11:42:04.919Z,10.57
2019-02-28T11:44:35.944Z,11.23
2019-02-28T11:47:08.408Z,12.05
2019-02-28T11:49:38.077Z,11.17
2019-02-28T11:52:12.334Z,11.00
2019-02-28T11:54:41.730Z,12.27
2019-02-28T11:57:12.837Z,12.43
2019-02-28T11:59:45.250Z,10.60
2019-02-28T12:02:16.267Z,11.00
2019-02-28T12:04:46.444Z,9.00
2019-02-28T12:07:16.243Z,9.80
2019-02-28T12:09:47.409Z,8.40
2019-02-28T12:12:19.946Z,9.97
2019-02-28T12:14:49.990Z,10.77
2019-02-28T12:17:19.756Z,9.77
2019-02-28T12:19:50.758Z,10.33
2019-02-28T12:22:21.178Z,10.07
2019-02-28T12:24:55.270Z,7.80
2019-02-28T12:27:27.461Z,7.47
2019-02-28T12:29:58.009Z,7.30
2019-02-28T12:32:29.180Z,8.20
2019-02-28T12:35:01.487Z,8.23
2019-02-28T12:37:31.480Z,10.20
2019-02-28T12:40:04.051Z,8.43
2019-02-28T12:42:34.589Z,12.60
2019-02-28T12:45:06.746Z,11.17
2019-02-28T12:47:38.694Z,8.53
2019-02-28T12:50:13.278Z,12.93
2019-02-28T12:52:49.027Z,12.70
2019-02-28T12:55:18.144Z,9.50
2019-02-28T12:57:51.771Z,12.47
2019-02-28T13:00:25.409Z,10.90
2019-02-28T13:02:56.454Z,9.70
2019-02-28T13:05:28.080Z,10.87
2019-02-28T13:07:59.415Z,11.20
2019-02-28T13:10:31.123Z,11.53
2019-02-28T13:13:06.653Z,11.40
2019-02-28T13:15:36.302Z,10.20
2019-02-28T13:18:09.373Z,19.37
2019-02-28T13:20:41.056Z,22.83
2019-02-28T13:23:11.063Z,11.68
2019-02-28T13:25:42.182Z,12.53
2019-02-28T13:28:13.129Z,13.20
2019-02-28T13:30:48.969Z,12.13
2019-02-28T13:33:16.208Z,10.95
2019-02-28T13:35:47.595Z,11.60
2019-02-28T13:38:19.321Z,11.20
2019-02-28T13:40:50.449Z,12.07
2019-02-28T13:43:22.289Z,10.90
2019-02-28T13:45:55.670Z,10.83
2019-02-28T13:48:26.491Z,11.28
2019-02-28T13:50:59.404Z,11.10
2019-02-28T13:53:30.517Z,9.47
2019-02-28T13:56:05.009Z,9.93
2019-02-28T13:58:35.037Z,10.67
2019-02-28T14:01:07.159Z,10.00
2019-02-28T14:03:37.095Z,10.67
2019-02-28T14:06:07.088Z,9.80
2019-02-28T14:08:38.372Z,10.60
2019-02-28T14:11:10.327Z,14.73
2019-02-28T14:13:41.969Z,12.10
2019-02-28T14:16:15.189Z,11.17
2019-02-28T14:18:46.768Z,10.90
2019-02-28T14:21:17.723Z,10.90
2019-02-28T14:23:52.495Z,12.30
2019-02-28T14:26:25.946Z,12.20
2019-02-28T14:28:58.520Z,12.00
2019-02-28T14:31:29.571Z,13.17
2019-02-28T14:34:01.984Z,12.70
2019-02-28T14:36:33.682Z,12.70
2019-02-28T14:39:04.747Z,12.50
2019-02-28T14:41:35.521Z,13.60
2019-02-28T14:44:08.438Z,13.90
2019-02-28T14:46:40.733Z,13.40
2019-02-28T14:49:13.999Z,13.87
2019-02-28T14:51:46.385Z,11.83
2019-02-28T14:54:17.625Z,15.57
2019-02-28T14:56:48.506Z,14.13
2019-02-28T14:59:18.319Z,14.47
2019-02-28T15:01:49.556Z,13.70
2019-02-28T15:04:22.431Z,13.83
2019-02-28T15:06:53.594Z,14.07
2019-02-28T15:09:27.099Z,14.50
2019-02-28T15:11:59.971Z,14.30
2019-02-28T15:14:31.045Z,14.13
2019-02-28T15:17:06.615Z,14.63
2019-02-28T15:19:34.052Z,14.60
2019-02-28T15:22:08.311Z,14.57
2019-02-28T15:24:40.519Z,14.97
2019-02-28T15:27:13.436Z,15.55
2019-02-28T15:29:45.783Z,14.17
2019-02-28T15:32:17.093Z,14.53
2019-02-28T15:34:47.178Z,13.97
2019-02-28T15:37:18.176Z,14.90
2019-02-28T15:39:49.825Z,14.73
2019-02-28T15:42:20.619Z,14.27
2019-02-28T15:44:50.497Z,15.77
2019-02-28T15:47:23.119Z,16.60
2019-02-28T15:49:54.312Z,15.40
2019-02-28T15:52:25.581Z,15.33
2019-02-28T15:54:56.897Z,15.60
2019-02-28T15:57:30.142Z,17.00
2019-02-28T16:00:00.634Z,16.90
2019-02-28T16:02:30.542Z,17.33
2019-02-28T16:05:05.213Z,16.23
2019-02-28T16:07:35.717Z,18.10
2019-02-28T16:10:08.911Z,16.77
2019-02-28T16:12:38.852Z,16.87
2019-02-28T16:15:12.641Z,18.03
2019-02-28T16:17:42.033Z,17.97
2019-02-28T16:20:15.668Z,17.80
2019-02-28T16:22:52.089Z,19.00
2019-02-28T16:25:34.123Z,20.27
2019-02-28T16:28:04.376Z,19.53
2019-02-28T16:30:35.616Z,21.00
2019-02-28T16:33:07.567Z,21.37
2019-02-28T16:35:40.368Z,21.23
2019-02-28T16:38:11.261Z,23.37
2019-02-28T16:40:42.650Z,23.18
2019-02-28T16:43:13.862Z,23.27
2019-02-28T16:45:50.935Z,22.73
2019-02-28T16:48:23.031Z,23.17
2019-02-28T16:50:53.679Z,23.53
2019-02-28T16:53:25.425Z,23.90
2019-02-28T16:55:56.725Z,24.40
2019-02-28T16:58:29.023Z,24.37
2019-02-28T17:01:01.127Z,25.23
2019-02-28T17:03:33.322Z,25.43
2019-02-28T17:06:03.784Z,25.63
2019-02-28T17:08:36.172Z,24.37
2019-02-28T17:11:09.164Z,25.07
2019-02-28T17:13:41.566Z,24.93
2019-02-28T17:16:33.678Z,25.37
2019-02-28T17:19:05.038Z,25.10
2019-02-28T17:21:37.431Z,26.20
2019-02-28T17:24:08.606Z,27.27
2019-02-28T17:26:57.665Z,26.23
2019-02-28T17:29:31.354Z,25.80
2019-02-28T17:32:02.146Z,26.97
2019-02-28T17:34:33.047Z,26.03
2019-02-28T17:37:03.807Z,26.62
2019-02-28T17:39:34.001Z,27.20
2019-02-28T17:42:08.651Z,26.83
2019-02-28T17:44:44.635Z,26.03
2019-02-28T17:47:36.688Z,26.82
2019-02-28T17:50:15.088Z,27.73
2019-02-28T17:52:53.508Z,28.87
2019-02-28T17:55:37.367Z,26.67
2019-02-28T17:58:19.772Z,27.27
2019-02-28T18:01:20.750Z,28.93
2019-02-28T18:04:24.062Z,29.03
2019-02-28T18:07:20.030Z,28.00
2019-02-28T18:09:55.079Z,27.87
2019-02-28T18:13:00.595Z,26.90
2019-02-28T18:15:36.472Z,29.70
2019-02-28T18:18:18.043Z,28.43
2019-02-28T18:20:54.056Z,29.05
2019-02-28T18:23:44.582Z,30.50
2019-02-28T18:26:39.325Z,28.40
2019-02-28T18:29:24.297Z,31.80
2019-02-28T18:31:57.064Z,31.30
2019-02-28T18:34:28.201Z,29.43
2019-02-28T18:36:58.995Z,30.93
2019-02-28T18:39:49.333Z,30.83
2019-02-28T18:42:20.596Z,30.17
2019-02-28T18:44:51.422Z,30.67
2019-02-28T18:47:22.749Z,31.07
2019-02-28T18:49:52.628Z,31.93
2019-02-28T18:52:24.025Z,32.00
2019-02-28T18:54:55.000Z,32.40
2019-02-28T18:57:26.295Z,31.67
2019-02-28T18:59:56.562Z,32.20
2019-02-28T19:02:27.472Z,34.20
2019-02-28T19:04:57.263Z,34.40
2019-02-28T19:07:28.591Z,32.50
2019-02-28T19:09:59.697Z,33.20
2019-02-28T19:12:30.592Z,33.47
2019-02-28T19:15:00.370Z,33.43
2019-02-28T19:17:30.971Z,34.70
2019-02-28T19:20:00.915Z,33.47
2019-02-28T19:22:33.144Z,34.33
2019-02-28T19:25:04.055Z,35.10
2019-02-28T19:27:39.410Z,35.10
2019-02-28T19:30:17.850Z,34.97
2019-02-28T19:32:48.717Z,34.60
2019-02-28T19:35:20.890Z,36.57
2019-02-28T19:37:53.610Z,34.97
2019-02-28T19:40:23.474Z,34.40
2019-02-28T19:42:54.360Z,35.30
2019-02-28T19:45:38.715Z,36.33
2019-02-28T19:48:08.615Z,33.53
2019-02-28T19:50:39.096Z,35.50
2019-02-28T19:53:11.276Z,37.03
2019-02-28T19:55:42.397Z,35.40
2019-02-28T19:58:13.309Z,33.78
2019-02-28T20:00:42.751Z,36.07
2019-02-28T20:03:13.687Z,34.93
2019-02-28T20:05:44.868Z,35.03
2019-02-28T20:08:19.352Z,34.38
2019-02-28T20:10:51.493Z,35.20
2019-02-28T20:13:21.334Z,35.27
2019-02-28T20:15:53.628Z,35.43
2019-02-28T20:18:24.901Z,34.90
2019-02-28T20:20:54.947Z,35.77
2019-02-28T20:23:26.050Z,36.07
2019-02-28T20:25:56.068Z,36.57
2019-02-28T20:28:27.125Z,36.20
2019-02-28T20:30:58.189Z,36.27
2019-02-28T20:33:30.974Z,36.83
2019-02-28T20:36:00.757Z,35.80
2019-02-28T20:38:31.699Z,35.37
2019-02-28T20:41:04.738Z,34.90
2019-02-28T20:43:38.891Z,36.80
2019-02-28T20:46:09.209Z,36.23
2019-02-28T20:48:42.494Z,38.17
2019-02-28T20:51:12.522Z,35.93
2019-02-28T20:53:41.774Z,36.87
2019-02-28T20:56:12.664Z,37.47
2019-02-28T20:58:47.177Z,36.37
2019-02-28T21:01:17.024Z,36.23
2019-02-28T21:03:49.827Z,38.47
2019-02-28T21:06:24.052Z,37.40
2019-02-28T21:08:54.938Z,38.07
2019-02-28T21:11:24.380Z,37.97
2019-02-28T21:13:56.619Z,39.43
2019-02-28T21:16:26.865Z,38.27
2019-02-28T21:18:59.229Z,37.70
2019-02-28T21:21:29.176Z,38.50
2019-02-28T21:24:00.193Z,37.00
2019-02-28T21:26:32.223Z,38.23
2019-02-28T21:29:01.906Z,39.60
2019-02-28T21:31:34.227Z,39.70
2019-02-28T21:34:05.225Z,42.93
2019-02-28T21:36:37.528Z,41.37
2019-02-28T21:39:08.959Z,41.13
2019-02-28T21:41:42.284Z,40.97
2019-02-28T21:44:12.150Z,38.50
2019-02-28T21:46:43.003Z,42.83
2019-02-28T21:49:12.921Z,40.83
2019-02-28T21:51:43.934Z,41.00
2019-02-28T21:54:16.190Z,41.87
2019-02-28T21:56:46.018Z,40.33
2019-02-28T21:59:19.098Z,41.87
2019-02-28T22:01:48.969Z,40.70
2019-02-28T22:04:21.816Z,40.07
2019-02-28T22:06:53.888Z,39.77
2019-02-28T22:09:24.965Z,39.65
2019-02-28T22:11:54.953Z,41.20
2019-02-28T22:14:25.120Z,40.27
2019-02-28T22:20:01.749Z,42.30
2019-02-28T22:22:32.815Z,42.33
2019-02-28T22:25:03.798Z,40.03
2019-02-28T22:33:45.306Z,42.80
2019-02-28T22:36:17.695Z,43.40
2019-02-28T22:38:48.773Z,43.57
2019-02-28T22:41:19.919Z,40.90
2019-02-28T22:43:50.944Z,45.00
2019-02-28T22:46:25.267Z,41.87
2019-02-28T22:48:56.568Z,45.37
2019-02-28T22:51:31.009Z,45.93
2019-02-28T22:54:03.921Z,44.87
2019-02-28T22:56:34.862Z,43.17
2019-02-28T22:59:06.981Z,45.93
2019-02-28T23:01:37.397Z,44.77
2019-02-28T23:04:08.573Z,44.50
2019-02-28T23:06:39.607Z,42.30
2019-02-28T23:09:09.887Z,42.43
2019-02-28T23:11:40.884Z,43.27
2019-02-28T23:14:11.926Z,44.50
2019-02-28T23:16:44.318Z,45.40
2019-02-28T23:19:15.192Z,46.45
2019-02-28T23:21:45.164Z,43.90
2019-02-28T23:24:17.245Z,45.67
2019-02-28T23:27:12.447Z,44.87
2019-02-28T23:29:50.422Z,47.65
2019-02-28T23:32:39.827Z,50.43
2019-02-28T23:35:16.743Z,51.60
2019-02-28T23:37:47.852Z,56.90
2019-02-28T23:40:17.206Z,55.13
2019-02-28T23:42:49.434Z,57.70
2019-02-28T23:45:19.314Z,57.20
2019-02-28T23:47:52.543Z,55.47
2019-02-28T23:50:23.584Z,57.03
2019-02-28T23:52:54.166Z,57.10
2019-02-28T23:55:28.364Z,57.37
2019-02-28T23:57:59.333Z,60.03
